createdAt,value
2022-11-06T00:01:50.192Z,82.79
2022-11-06T00:04:16.771Z,82.27
2022-11-06T00:06:49.424Z,82.89
2022-11-06T00:09:19.118Z,82.49
2022-11-06T00:53:06.019Z,83.66
2022-11-06T00:55:32.571Z,84.08
2022-11-06T01:02:14.508Z,82.65
2022-11-06T01:04:41.326Z,84.88
2022-11-06T01:07:10.698Z,83.56
2022-11-06T01:48:13.922Z,83.54
2022-11-06T01:50:43.639Z,85.93
2022-11-06T01:53:12.431Z,86.65
2022-11-06T01:55:43.014Z,85.66
2022-11-06T01:58:14.899Z,85.00
2022-11-06T02:00:57.764Z,85.44
2022-11-06T02:04:37.902Z,84.42
2022-11-06T02:07:26.395Z,84.56
2022-11-06T02:09:53.197Z,86.35
2022-11-06T02:12:45.674Z,86.39
2022-11-06T02:15:36.274Z,85.57
2022-11-06T02:18:25.330Z,85.72
2022-11-06T02:23:48.848Z,85.22
2022-11-06T02:26:53.353Z,86.37
2022-11-06T02:29:33.101Z,85.42
2022-11-06T02:32:42.971Z,84.86
2022-11-06T02:35:35.144Z,85.42
2022-11-06T02:38:07.614Z,85.45
2022-11-06T02:40:52.207Z,85.95
2022-11-06T02:43:22.067Z,85.87
2022-11-06T02:45:57.111Z,86.22
2022-11-06T02:48:29.869Z,86.47
2022-11-06T03:13:10.499Z,84.17
2022-11-06T03:16:05.933Z,83.80
2022-11-06T03:18:43.916Z,83.69
2022-11-06T03:21:19.130Z,83.11
2022-11-06T03:23:58.155Z,84.28
2022-11-06T03:29:22.410Z,83.37
2022-11-06T03:31:55.224Z,84.26
2022-11-06T03:35:03.013Z,85.12
2022-11-06T03:42:43.112Z,85.61
2022-11-06T03:51:30.480Z,83.82
2022-11-06T05:14:39.423Z,79.84
2022-11-06T05:17:05.969Z,79.14
2022-11-06T05:19:32.590Z,80.00
2022-11-06T05:22:17.658Z,79.29
2022-11-06T05:24:44.417Z,79.37
2022-11-06T05:27:10.938Z,79.25
2022-11-06T05:29:38.370Z,79.61
2022-11-06T05:32:05.185Z,78.86
2022-11-06T05:34:31.770Z,78.75
2022-11-06T05:36:58.356Z,78.58
2022-11-06T05:39:43.272Z,78.72
2022-11-06T05:42:50.468Z,78.62
2022-11-06T05:45:16.989Z,78.71
2022-11-06T05:47:44.687Z,78.14
2022-11-06T05:50:11.358Z,78.68
2022-11-06T05:52:38.249Z,77.96
2022-11-06T05:55:13.210Z,78.28
2022-11-06T05:57:41.215Z,77.48
2022-11-06T06:00:12.214Z,77.58
2022-11-06T06:02:39.041Z,78.17
2022-11-06T06:05:06.410Z,77.68
2022-11-06T06:07:34.403Z,77.97
2022-11-06T06:10:01.032Z,78.95
2022-11-06T06:36:16.462Z,76.23
2022-11-06T06:38:43.142Z,75.99
2022-11-06T06:41:12.703Z,76.68
2022-11-06T06:43:39.399Z,76.02
2022-11-06T06:46:08.393Z,75.65
2022-11-06T06:51:24.195Z,75.63
2022-11-06T06:53:51.043Z,75.64
2022-11-06T06:56:17.634Z,75.39
2022-11-06T06:58:44.456Z,75.82
2022-11-06T07:01:11.510Z,75.62
2022-11-06T07:07:35.182Z,75.90
2022-11-06T07:10:05.985Z,75.41
2022-11-06T07:29:47.226Z,75.72
2022-11-06T07:32:13.917Z,76.62
2022-11-06T07:34:40.517Z,76.25
2022-11-06T07:37:07.929Z,75.92
2022-11-06T07:39:36.260Z,76.51
2022-11-06T07:42:02.901Z,76.94
2022-11-06T07:44:30.985Z,77.08
2022-11-06T07:46:57.551Z,77.23
2022-11-06T07:49:24.114Z,76.83
2022-11-06T07:51:50.918Z,76.74
2022-11-06T07:54:17.486Z,76.69
2022-11-06T08:45:17.583Z,77.07
2022-11-06T08:47:45.403Z,76.00
2022-11-06T08:50:12.054Z,75.66
2022-11-06T08:52:46.010Z,76.40
2022-11-06T09:14:23.194Z,73.83
2022-11-06T09:16:50.037Z,74.17
2022-11-06T09:19:16.867Z,73.55
2022-11-06T09:21:43.848Z,73.06
2022-11-06T09:24:10.717Z,72.91
2022-11-06T09:26:37.732Z,72.36
2022-11-06T09:34:15.614Z,72.68
2022-11-06T09:36:42.186Z,71.85
2022-11-06T09:39:08.952Z,72.04
2022-11-06T10:00:37.136Z,70.81
2022-11-06T10:03:05.846Z,70.56
2022-11-06T10:05:47.738Z,70.70
2022-11-06T12:46:40.500Z,61.99
2022-11-06T12:49:32.641Z,62.00
2022-11-06T12:52:22.721Z,62.67
2022-11-06T12:55:26.620Z,62.17
2022-11-06T12:58:04.048Z,62.10
2022-11-06T14:00:11.989Z,64.32
2022-11-06T14:06:06.279Z,64.41
2022-11-06T14:08:55.192Z,63.74
2022-11-06T14:35:33.470Z,64.74
2022-11-06T14:38:17.554Z,65.08
2022-11-06T14:40:44.749Z,65.27
2022-11-06T14:43:26.455Z,65.28
2022-11-06T14:45:58.712Z,65.61
2022-11-06T14:53:52.601Z,66.12
2022-11-06T14:56:32.632Z,66.18
2022-11-06T14:59:07.500Z,66.12
2022-11-06T15:01:37.285Z,66.09
2022-11-06T15:04:18.704Z,66.36
2022-11-06T15:06:50.267Z,66.34
2022-11-06T15:09:22.884Z,66.51
2022-11-06T15:11:58.259Z,66.60
2022-11-06T15:14:24.800Z,66.80
2022-11-06T15:16:55.770Z,67.00
2022-11-06T15:19:27.076Z,67.61
2022-11-06T15:22:14.310Z,68.17
2022-11-06T15:24:45.459Z,68.29
2022-11-06T15:27:17.021Z,67.98
2022-11-06T15:29:46.214Z,67.52
2022-11-06T15:32:28.329Z,67.61
2022-11-06T15:35:04.997Z,67.63
2022-11-06T15:37:48.033Z,67.57
2022-11-06T15:40:27.940Z,68.03
2022-11-06T15:42:58.021Z,68.09
2022-11-06T15:45:27.749Z,68.11
2022-11-06T15:48:03.326Z,68.22
2022-11-06T15:50:32.295Z,68.45
2022-11-06T15:53:21.489Z,68.56
2022-11-06T15:55:56.972Z,69.46
2022-11-06T15:58:31.033Z,69.77
2022-11-06T16:01:02.585Z,70.88
2022-11-06T16:03:32.714Z,70.90
2022-11-06T16:06:03.322Z,71.45
2022-11-06T16:08:32.208Z,72.30
2022-11-06T16:11:00.101Z,72.32
2022-11-06T16:13:29.998Z,72.04
2022-11-06T16:16:00.620Z,72.81
2022-11-06T16:18:39.660Z,73.10
2022-11-06T16:21:13.783Z,73.17
2022-11-06T16:23:44.905Z,72.83
2022-11-06T16:26:21.454Z,73.07
2022-11-06T16:28:50.488Z,72.89
2022-11-06T16:31:20.535Z,72.70
2022-11-06T16:34:33.832Z,72.56
2022-11-06T16:37:27.999Z,73.01
2022-11-06T16:39:56.005Z,73.21
2022-11-06T16:42:22.787Z,73.00
2022-11-06T16:44:51.002Z,72.78
2022-11-06T16:47:19.706Z,72.90
2022-11-06T16:49:53.990Z,73.19
2022-11-06T16:52:28.283Z,73.50
2022-11-06T16:55:21.088Z,73.11
2022-11-06T16:57:53.031Z,73.21
2022-11-06T17:00:19.492Z,72.61
2022-11-06T17:02:55.763Z,72.00
2022-11-06T17:05:25.087Z,71.76
2022-11-06T17:08:19.017Z,71.73
2022-11-06T17:10:47.154Z,73.65
2022-11-06T17:13:14.264Z,74.08
2022-11-06T17:15:43.001Z,74.67
2022-11-06T17:18:22.305Z,74.23
2022-11-06T17:20:53.355Z,73.17
2022-11-06T17:23:20.664Z,72.34
2022-11-06T17:25:48.880Z,71.76
2022-11-06T17:28:16.539Z,72.60
2022-11-06T17:30:43.091Z,72.79
2022-11-06T17:33:09.702Z,72.26
2022-11-06T17:35:36.515Z,71.61
2022-11-06T17:38:07.256Z,72.27
2022-11-06T17:40:34.286Z,72.80
2022-11-06T17:43:00.849Z,73.49
2022-11-06T17:45:27.408Z,74.34
2022-11-06T17:47:53.960Z,74.15
2022-11-06T17:50:26.092Z,73.34
2022-11-06T17:52:52.703Z,73.38
2022-11-06T17:55:19.366Z,72.98
2022-11-06T17:57:45.891Z,72.85
2022-11-06T18:00:13.011Z,73.62
2022-11-06T18:02:59.741Z,74.08
2022-11-06T18:05:26.106Z,74.64
2022-11-06T18:07:54.305Z,74.99
2022-11-06T18:10:22.898Z,74.51
2022-11-06T18:12:52.958Z,74.11
2022-11-06T18:15:19.488Z,73.83
2022-11-06T18:17:46.015Z,74.95
2022-11-06T18:20:12.580Z,74.37
2022-11-06T18:22:41.795Z,75.01
2022-11-06T18:25:08.366Z,74.68
2022-11-06T18:27:34.898Z,74.92
2022-11-06T18:30:02.227Z,74.53
2022-11-06T18:32:28.835Z,75.23
2022-11-06T18:34:55.367Z,76.22
2022-11-06T18:37:25.620Z,77.23
2022-11-06T18:39:52.369Z,77.72
2022-11-06T18:42:18.990Z,77.68
2022-11-06T18:44:45.541Z,77.17
2022-11-06T18:47:12.071Z,78.32
2022-11-06T18:49:38.651Z,78.64
2022-11-06T18:52:05.570Z,78.16
2022-11-06T18:54:32.140Z,77.55
2022-11-06T18:56:59.023Z,76.68
2022-11-06T18:59:25.618Z,76.53
2022-11-06T19:01:53.285Z,76.94
2022-11-06T19:04:22.040Z,77.20
2022-11-06T19:06:49.315Z,76.74
2022-11-06T19:09:15.966Z,77.45
2022-11-06T19:11:42.606Z,77.58
2022-11-06T19:14:09.368Z,76.53
2022-11-06T19:16:36.449Z,76.79
2022-11-06T19:19:05.775Z,76.29
2022-11-06T19:21:33.499Z,76.13
2022-11-06T19:24:04.065Z,76.43
2022-11-06T19:26:32.696Z,76.67
2022-11-06T19:29:00.620Z,76.77
2022-11-06T19:31:33.460Z,76.95
2022-11-06T19:34:01.649Z,75.90
2022-11-06T19:36:47.060Z,75.00
2022-11-06T19:39:14.236Z,74.41
2022-11-06T19:41:40.779Z,74.38
2022-11-06T19:44:09.430Z,73.99
2022-11-06T19:46:54.680Z,74.17
2022-11-06T19:50:06.268Z,73.88
2022-11-06T19:52:50.917Z,73.49
2022-11-06T19:55:26.914Z,73.34
2022-11-06T19:57:57.900Z,73.20
2022-11-06T20:00:24.752Z,73.49
2022-11-06T20:02:51.412Z,73.36
2022-11-06T20:05:18.326Z,73.47
2022-11-06T20:07:45.066Z,73.38
2022-11-06T20:10:11.677Z,73.29
2022-11-06T20:12:38.657Z,73.24
2022-11-06T20:15:05.783Z,73.34
2022-11-06T20:17:32.326Z,73.64
2022-11-06T20:19:58.935Z,74.62
2022-11-06T20:22:25.725Z,74.54
2022-11-06T20:24:52.448Z,74.22
2022-11-06T20:27:19.106Z,75.84
2022-11-06T20:29:45.850Z,77.40
2022-11-06T20:32:17.707Z,76.14
2022-11-06T20:34:45.585Z,74.88
2022-11-06T20:37:13.432Z,76.75
2022-11-06T20:39:42.576Z,76.28
2022-11-06T20:42:09.194Z,75.70
2022-11-06T20:44:35.783Z,75.84
2022-11-06T20:47:02.386Z,75.42
2022-11-06T20:49:28.926Z,75.07
2022-11-06T20:52:13.105Z,74.51
2022-11-06T20:54:46.370Z,74.14
2022-11-06T20:57:15.065Z,74.27
2022-11-06T20:59:42.556Z,73.92
2022-11-06T21:02:34.481Z,73.52
2022-11-06T21:05:14.943Z,73.83
2022-11-06T21:07:53.850Z,73.66
2022-11-06T21:10:20.378Z,73.46
2022-11-06T21:18:24.956Z,72.45
2022-11-06T21:20:52.321Z,72.46
2022-11-06T21:23:19.272Z,72.42
2022-11-06T21:25:46.361Z,72.79
2022-11-06T21:28:12.956Z,72.84
2022-11-06T21:30:44.507Z,73.39
2022-11-06T21:33:11.418Z,73.26
2022-11-06T21:41:11.630Z,73.39
2022-11-06T21:43:52.548Z,74.01
2022-11-06T21:46:21.054Z,73.71
2022-11-06T21:48:48.322Z,74.02
2022-11-06T21:59:25.211Z,75.09
2022-11-06T22:01:51.961Z,74.23
2022-11-06T22:04:18.707Z,73.99
2022-11-06T22:06:45.354Z,74.23
2022-11-06T22:09:13.715Z,75.11
2022-11-06T22:11:52.670Z,75.08
2022-11-06T22:14:19.245Z,74.56
2022-11-06T22:16:49.328Z,74.26
2022-11-06T22:27:21.490Z,74.25
2022-11-06T22:29:48.094Z,74.45
2022-11-06T22:32:14.754Z,75.19
2022-11-06T22:34:41.306Z,76.03
2022-11-06T22:37:07.934Z,75.85
2022-11-06T22:39:34.517Z,75.11
2022-11-06T22:42:12.975Z,75.19
2022-11-06T22:44:39.553Z,75.44
2022-11-06T22:47:06.602Z,75.35
2022-11-06T22:49:33.138Z,76.08
2022-11-06T22:52:08.454Z,76.30
2022-11-06T23:14:58.579Z,77.63
2022-11-06T23:17:26.428Z,77.22
2022-11-06T23:20:17.989Z,77.38
2022-11-06T23:23:15.777Z,77.05
2022-11-06T23:26:10.358Z,76.89
2022-11-06T23:28:37.015Z,77.06
2022-11-06T23:31:08.294Z,76.67
2022-11-06T23:33:35.379Z,76.76
2022-11-06T23:36:10.214Z,76.31
2022-11-06T23:38:37.533Z,76.49
2022-11-06T23:41:42.840Z,76.24
2022-11-06T23:44:28.141Z,77.03
2022-11-06T23:47:13.398Z,76.55
2022-11-06T23:55:49.461Z,76.02
2022-11-06T23:58:15.999Z,75.86
